Time;durP1;ratioP1;P1;durP2;ratioP2;P2;SDS_P1;SDS_P2;PMS_P1;PMS_P2;Temp;Humidity;BMP_temperature;BMP_pressure;BME280_temperature;BME280_humidity;BME280_pressure;Samples;Min_cycle;Max_cycle;Signal;HPM_P1;HPM_P2
2024/02/22 00:01:49;;;;;;;1.98;1.77;;;8.50;99.90;;;;;;5020907;28;20037;-41
2024/02/22 00:04:15;;;;;;;1.15;1.00;;;8.50;99.90;;;;;;5021173;28;20156;-41
2024/02/22 00:06:40;;;;;;;1.73;1.35;;;8.70;99.50;;;;;;5024042;28;20043;-40
2024/02/22 00:09:07;;;;;;;2.20;1.40;;;8.90;97.50;;;;;;5022035;28;20075;-37
2024/02/22 00:11:35;;;;;;;2.05;1.20;;;9.10;98.00;;;;;;5020696;28;20100;-41
2024/02/22 00:14:01;;;;;;;0.70;0.70;;;9.40;95.20;;;;;;5021794;28;20030;-41
2024/02/22 00:16:26;;;;;;;1.02;0.95;;;9.80;92.70;;;;;;5006170;28;20060;-37
2024/02/22 00:18:52;;;;;;;0.70;0.70;;;10.10;90.40;;;;;;5024774;28;20029;-36
2024/02/22 00:21:18;;;;;;;1.30;1.20;;;10.20;87.10;;;;;;5023207;28;20026;-40
2024/02/22 00:23:44;;;;;;;1.73;0.80;;;10.40;86.00;;;;;;5004641;28;20033;-41
2024/02/22 00:26:11;;;;;;;0.98;0.80;;;10.50;82.00;;;;;;5023035;28;20502;-41
2024/02/22 00:28:37;;;;;;;0.80;0.80;;;11.00;76.20;;;;;;5022523;28;20514;-41
2024/02/22 00:31:02;;;;;;;0.80;0.80;;;10.80;77.50;;;;;;5018687;28;20038;-40
2024/02/22 00:33:28;;;;;;;1.48;0.90;;;10.80;76.30;;;;;;5025138;28;20439;-39
2024/02/22 00:35:54;;;;;;;0.68;0.68;;;10.80;77.60;;;;;;5024440;28;20108;-35
2024/02/22 00:38:19;;;;;;;1.00;0.70;;;10.90;76.60;;;;;;5025003;28;20032;-41
2024/02/22 00:40:45;;;;;;;0.80;0.80;;;11.00;77.00;;;;;;5022338;28;20513;-41
2024/02/22 00:43:11;;;;;;;1.90;1.10;;;11.30;71.30;;;;;;5022362;28;20120;-40
2024/02/22 00:45:36;;;;;;;0.80;0.80;;;11.90;67.30;;;;;;5022443;28;21365;-40
2024/02/22 00:48:02;;;;;;;1.05;0.93;;;11.70;68.90;;;;;;5023829;28;20112;-38
2024/02/22 00:50:28;;;;;;;1.30;1.20;;;11.50;70.10;;;;;;5022582;28;20030;-39
2024/02/22 00:52:55;;;;;;;0.82;0.80;;;11.40;71.70;;;;;;5021944;28;20414;-42
2024/02/22 00:55:21;;;;;;;0.82;0.82;;;11.20;72.50;;;;;;5024052;28;20037;-42
2024/02/22 00:57:47;;;;;;;0.80;0.77;;;11.80;65.80;;;;;;5005066;28;20103;-39
2024/02/22 01:00:12;;;;;;;0.77;0.77;;;11.80;65.00;;;;;;5017793;28;20136;-41
2024/02/22 01:02:39;;;;;;;1.20;1.10;;;11.70;67.50;;;;;;5002636;28;20057;-31
2024/02/22 01:05:05;;;;;;;1.20;1.00;;;11.80;64.60;;;;;;5023485;28;20406;-31
2024/02/22 01:07:33;;;;;;;1.00;0.90;;;11.90;64.20;;;;;;5018141;28;20037;-31
2024/02/22 01:09:59;;;;;;;1.30;1.20;;;11.90;64.30;;;;;;5018611;28;20556;-34
2024/02/22 01:12:25;;;;;;;0.77;0.77;;;11.90;63.60;;;;;;5024149;28;20021;-31
2024/02/22 01:14:54;;;;;;;1.02;0.90;;;11.80;64.50;;;;;;5021916;28;20032;-37
2024/02/22 01:17:19;;;;;;;1.17;1.08;;;11.70;64.30;;;;;;5019088;28;20663;-32
2024/02/22 01:19:45;;;;;;;1.40;1.30;;;11.80;64.40;;;;;;5023274;28;20024;-31
2024/02/22 01:22:11;;;;;;;0.82;0.82;;;11.80;65.80;;;;;;5021726;28;20394;-34
2024/02/22 01:24:37;;;;;;;1.23;1.13;;;11.80;64.00;;;;;;5021802;28;20057;-31
2024/02/22 01:27:07;;;;;;;0.75;0.75;;;11.70;65.10;;;;;;5023039;28;20518;-33
2024/02/22 01:29:33;;;;;;;1.13;1.02;;;11.70;66.80;;;;;;5025275;28;20037;-31
2024/02/22 01:31:59;;;;;;;2.05;1.08;;;11.80;62.00;;;;;;5002801;28;20026;-31
2024/02/22 01:34:24;;;;;;;1.50;1.00;;;11.80;62.50;;;;;;5021534;28;20073;-33
2024/02/22 01:36:50;;;;;;;2.40;1.20;;;11.80;63.10;;;;;;5021194;28;20029;-37
2024/02/22 01:39:16;;;;;;;0.57;0.57;;;11.90;64.00;;;;;;5020170;28;20029;-33
2024/02/22 01:41:41;;;;;;;0.70;0.70;;;11.90;63.50;;;;;;5021246;28;20044;-31
2024/02/22 01:44:07;;;;;;;1.20;0.90;;;11.90;63.00;;;;;;5019083;28;20029;-31
2024/02/22 01:46:33;;;;;;;1.00;0.77;;;11.90;64.80;;;;;;5022061;28;20030;-32
2024/02/22 01:49:00;;;;;;;0.85;0.85;;;11.80;65.20;;;;;;5021707;28;20025;-31
2024/02/22 01:51:26;;;;;;;0.90;0.90;;;11.90;64.10;;;;;;5021778;28;20556;-31
2024/02/22 01:53:52;;;;;;;0.95;0.95;;;11.90;64.00;;;;;;5021512;28;20029;-38
2024/02/22 01:56:20;;;;;;;0.93;0.90;;;11.90;63.50;;;;;;5024115;28;20033;-33
2024/02/22 01:58:50;;;;;;;1.27;1.08;;;11.90;64.80;;;;;;5021252;28;20884;-31
2024/02/22 02:01:19;;;;;;;1.40;1.30;;;11.70;66.70;;;;;;5018610;28;20029;-31
2024/02/22 02:03:45;;;;;;;1.65;1.00;;;11.70;66.80;;;;;;5023443;28;20021;-31
2024/02/22 02:06:11;;;;;;;1.10;0.95;;;11.60;67.80;;;;;;5026219;28;20120;-32
2024/02/22 02:08:37;;;;;;;1.75;1.00;;;11.50;69.40;;;;;;5020364;28;20034;-33
2024/02/22 02:11:04;;;;;;;1.20;1.00;;;11.50;69.70;;;;;;5018065;28;20112;-41
2024/02/22 02:13:30;;;;;;;1.10;1.00;;;11.40;70.10;;;;;;5008449;28;20509;-41
2024/02/22 02:15:55;;;;;;;0.90;0.90;;;11.40;71.00;;;;;;5026232;28;20128;-40
2024/02/22 02:18:21;;;;;;;1.35;0.80;;;11.40;71.70;;;;;;5022482;28;20125;-36
2024/02/22 02:21:03;;;;;;;0.82;0.82;;;11.30;72.30;;;;;;5022816;28;21232;-33
2024/02/22 02:24:06;;;;;;;1.25;0.98;;;11.30;73.30;;;;;;5024768;28;20502;-32
2024/02/22 02:26:32;;;;;;;0.77;0.77;;;11.30;74.00;;;;;;5024016;28;20046;-32
2024/02/22 02:28:57;;;;;;;1.33;0.80;;;11.30;74.60;;;;;;5026668;28;20082;-32
2024/02/22 02:31:23;;;;;;;1.75;0.88;;;11.30;76.00;;;;;;5024219;28;20380;-32
2024/02/22 02:33:48;;;;;;;1.38;0.70;;;11.30;76.80;;;;;;5027835;28;20037;-34
2024/02/22 02:36:14;;;;;;;0.88;0.80;;;11.20;76.80;;;;;;5022335;28;20503;-33
2024/02/22 02:38:40;;;;;;;1.40;0.75;;;11.20;77.50;;;;;;5027217;28;20072;-32
2024/02/22 02:41:05;;;;;;;0.80;0.70;;;11.20;78.00;;;;;;5028532;28;20083;-33
2024/02/22 02:43:31;;;;;;;0.57;0.57;;;11.20;78.20;;;;;;5021414;28;20445;-35
2024/02/22 02:45:57;;;;;;;0.50;0.50;;;11.20;79.40;;;;;;5025653;28;20022;-34
2024/02/22 02:48:22;;;;;;;0.70;0.70;;;11.20;76.80;;;;;;5023875;28;20701;-33
2024/02/22 02:50:48;;;;;;;0.82;0.82;;;11.10;78.60;;;;;;5024543;28;20036;-38
2024/02/22 02:53:14;;;;;;;0.65;0.65;;;11.20;78.50;;;;;;5024030;28;20454;-35
2024/02/22 02:55:40;;;;;;;3.95;1.17;;;11.20;79.10;;;;;;5026177;28;20025;-33
2024/02/22 02:58:05;;;;;;;1.15;0.80;;;11.10;78.80;;;;;;5021082;28;20486;-33
2024/02/22 03:00:32;;;;;;;0.75;0.70;;;11.10;80.40;;;;;;5023049;28;20038;-34
2024/02/22 03:02:58;;;;;;;0.82;0.82;;;11.20;80.60;;;;;;5023666;28;20033;-34
2024/02/22 03:05:26;;;;;;;0.70;0.70;;;11.10;80.60;;;;;;5024160;28;20039;-33
2024/02/22 03:07:53;;;;;;;0.60;0.60;;;11.10;80.10;;;;;;5022324;28;20045;-35
2024/02/22 03:10:21;;;;;;;0.43;0.43;;;11.10;81.40;;;;;;5024791;28;20391;-33
2024/02/22 03:12:47;;;;;;;0.82;0.82;;;11.00;80.80;;;;;;5024699;28;20035;-32
2024/02/22 03:15:15;;;;;;;1.63;0.80;;;11.00;81.70;;;;;;5023635;28;20033;-35
2024/02/22 03:17:41;;;;;;;2.35;1.10;;;10.90;82.70;;;;;;5020155;28;20030;-36
2024/02/22 03:20:10;;;;;;;1.23;0.70;;;11.00;80.80;;;;;;5023432;28;20383;-33
2024/02/22 03:22:37;;;;;;;0.80;0.75;;;11.00;81.60;;;;;;5021473;28;20033;-37
2024/02/22 03:25:05;;;;;;;2.45;0.80;;;10.90;82.60;;;;;;5017634;28;20425;-42
2024/02/22 03:27:31;;;;;;;2.67;1.42;;;10.90;83.80;;;;;;4999866;28;20092;-42
2024/02/22 03:29:58;;;;;;;1.00;1.00;;;10.80;81.90;;;;;;5022783;28;20099;-39
2024/02/22 03:32:24;;;;;;;1.30;1.20;;;10.80;82.80;;;;;;5027526;28;20037;-42
2024/02/22 03:34:50;;;;;;;1.95;1.17;;;10.80;83.30;;;;;;5030585;28;20592;-41
2024/02/22 03:37:17;;;;;;;1.45;1.30;;;10.70;87.70;;;;;;5022750;28;20026;-39
2024/02/22 03:39:49;;;;;;;1.95;0.98;;;10.50;90.90;;;;;;5004969;28;20502;-41
2024/02/22 03:42:17;;;;;;;2.05;1.38;;;10.50;92.90;;;;;;5021401;28;20533;-39
2024/02/22 03:44:43;;;;;;;;;;;10.40;92.00;;;;;;5025525;28;20471;-40
2024/02/22 03:47:09;;;;;;;2.03;1.80;;;10.30;94.30;;;;;;5027243;28;19971;-42
2024/02/22 03:49:34;;;;;;;1.83;1.35;;;10.10;96.00;;;;;;5024171;28;20025;-41
2024/02/22 03:52:00;;;;;;;1.63;1.40;;;10.10;99.00;;;;;;5022575;28;20756;-42
2024/02/22 03:54:25;;;;;;;1.85;1.70;;;10.20;98.80;;;;;;5024113;28;20026;-42
2024/02/22 03:56:52;;;;;;;2.22;1.90;;;10.10;97.70;;;;;;5031489;28;20029;-35
2024/02/22 03:59:17;;;;;;;1.92;1.35;;;10.20;99.10;;;;;;5021620;28;20037;-39
2024/02/22 04:01:43;;;;;;;1.65;1.55;;;10.10;99.90;;;;;;5021949;28;20033;-36
2024/02/22 04:04:08;;;;;;;3.67;1.38;;;10.20;98.80;;;;;;5020251;28;20097;-40
2024/02/22 04:06:34;;;;;;;6.43;1.60;;;10.10;99.90;;;;;;5025259;28;20025;-42
2024/02/22 04:09:01;;;;;;;1.00;1.00;;;10.10;99.90;;;;;;5005144;28;20029;-39
2024/02/22 04:11:27;;;;;;;2.42;1.50;;;9.90;99.90;;;;;;5002252;28;20037;-42
2024/02/22 04:13:53;;;;;;;2.05;1.45;;;9.90;99.90;;;;;;5023127;28;20028;-40
2024/02/22 04:16:18;;;;;;;1.48;1.15;;;9.80;99.90;;;;;;5025461;28;20041;-41
2024/02/22 04:18:44;;;;;;;1.30;1.20;;;9.90;99.90;;;;;;5019418;28;20026;-39
2024/02/22 04:21:09;;;;;;;2.25;1.40;;;9.80;99.90;;;;;;5027303;28;20033;-41
2024/02/22 04:23:35;;;;;;;1.40;1.20;;;9.80;99.90;;;;;;5004398;28;20029;-42
2024/02/22 04:26:01;;;;;;;2.15;1.38;;;9.70;99.90;;;;;;5031710;28;20483;-43
2024/02/22 04:28:26;;;;;;;1.50;1.40;;;9.60;99.90;;;;;;5009732;28;20466;-39
2024/02/22 04:30:52;;;;;;;1.52;1.30;;;9.60;99.90;;;;;;5020256;28;20104;-39
2024/02/22 04:33:17;;;;;;;2.25;1.48;;;9.60;99.90;;;;;;5008415;28;20049;-40
2024/02/22 04:35:44;;;;;;;1.75;1.40;;;9.60;99.90;;;;;;5025632;28;20033;-40
2024/02/22 04:38:11;;;;;;;1.73;1.38;;;9.50;99.90;;;;;;5023199;28;20029;-42
2024/02/22 04:40:37;;;;;;;1.77;1.67;;;9.50;99.90;;;;;;5022638;28;20045;-41
2024/02/22 04:43:04;;;;;;;2.63;1.83;;;9.40;99.90;;;;;;5023283;28;20053;-39
2024/02/22 04:45:30;;;;;;;1.65;1.55;;;9.50;99.90;;;;;;5026270;28;20033;-42
2024/02/22 04:47:57;;;;;;;2.53;1.70;;;9.40;99.90;;;;;;5023883;28;20120;-41
2024/02/22 04:50:23;;;;;;;1.30;1.20;;;9.40;99.90;;;;;;5020066;28;20033;-39
2024/02/22 04:52:49;;;;;;;2.20;1.45;;;9.30;99.90;;;;;;5023823;28;20453;-42
2024/02/22 04:55:14;;;;;;;1.80;1.70;;;9.30;99.90;;;;;;5003646;28;20030;-40
2024/02/22 04:57:40;;;;;;;1.48;1.38;;;9.30;99.90;;;;;;5024672;28;20040;-40
2024/02/22 05:00:08;;;;;;;1.73;1.50;;;9.30;99.90;;;;;;5022474;28;20574;-40
2024/02/22 05:02:34;;;;;;;1.75;1.60;;;9.20;99.90;;;;;;5022352;28;20044;-39
2024/02/22 05:05:00;;;;;;;2.25;1.95;;;9.20;99.90;;;;;;5023484;28;20475;-40
2024/02/22 05:07:25;;;;;;;3.20;1.90;;;9.20;99.90;;;;;;5021993;28;20029;-40
2024/02/22 05:09:51;;;;;;;2.70;1.75;;;9.10;99.90;;;;;;5023387;28;20516;-38
2024/02/22 05:12:16;;;;;;;1.23;1.13;;;9.10;99.90;;;;;;5024070;28;20033;-39
2024/02/22 05:14:45;;;;;;;2.05;1.50;;;9.00;99.90;;;;;;5019239;28;20034;-39
2024/02/22 05:17:12;;;;;;;2.65;1.63;;;9.00;99.90;;;;;;5023575;28;20033;-37
2024/02/22 05:19:37;;;;;;;2.15;1.75;;;9.10;99.90;;;;;;5028277;28;20381;-32
2024/02/22 05:22:03;;;;;;;2.25;1.42;;;9.10;99.90;;;;;;5022886;28;20031;-35
2024/02/22 05:24:29;;;;;;;1.48;1.33;;;9.10;99.90;;;;;;5017110;28;20045;-32
2024/02/22 05:26:55;;;;;;;1.25;1.15;;;9.10;99.90;;;;;;5017678;28;20026;-35
2024/02/22 05:29:21;;;;;;;1.67;1.23;;;9.10;99.90;;;;;;5020352;28;20383;-32
2024/02/22 05:31:46;;;;;;;1.92;1.10;;;9.10;99.90;;;;;;5019801;28;20034;-35
2024/02/22 05:34:12;;;;;;;1.08;1.02;;;9.10;99.90;;;;;;5025367;28;20386;-33
2024/02/22 05:36:38;;;;;;;2.75;1.40;;;9.00;99.90;;;;;;5021101;28;20133;-35
2024/02/22 05:39:06;;;;;;;1.40;1.15;;;9.00;99.90;;;;;;5021676;28;20584;-33
2024/02/22 05:41:33;;;;;;;1.58;1.30;;;9.00;99.90;;;;;;5021000;28;20521;-42
2024/02/22 05:43:58;;;;;;;2.17;1.42;;;9.00;99.90;;;;;;5002915;28;20498;-41
2024/02/22 05:46:24;;;;;;;2.67;1.80;;;8.90;99.90;;;;;;5006364;28;20053;-41
2024/02/22 05:48:49;;;;;;;1.23;1.13;;;8.90;99.90;;;;;;5028407;28;20025;-40
2024/02/22 05:51:15;;;;;;;3.15;1.38;;;8.90;99.90;;;;;;5025041;28;20063;-33
2024/02/22 05:53:42;;;;;;;2.30;1.40;;;8.90;99.90;;;;;;5026598;28;21118;-32
2024/02/22 05:56:07;;;;;;;1.17;1.17;;;8.80;99.90;;;;;;5027847;28;20072;-39
2024/02/22 05:58:33;;;;;;;1.58;1.30;;;8.80;99.90;;;;;;5029326;28;20064;-34
2024/02/22 06:00:59;;;;;;;1.08;1.08;;;8.70;99.90;;;;;;5025132;28;20458;-33
2024/02/22 06:03:25;;;;;;;1.52;1.38;;;8.70;99.90;;;;;;5032915;28;20530;-33
2024/02/22 06:05:50;;;;;;;2.25;1.65;;;8.70;99.90;;;;;;5030880;28;20112;-34
2024/02/22 06:08:17;;;;;;;2.17;1.30;;;8.70;99.90;;;;;;5010910;28;20403;-35
2024/02/22 06:10:42;;;;;;;3.10;1.48;;;8.70;99.90;;;;;;5028954;28;20025;-35
2024/02/22 06:13:08;;;;;;;2.33;1.60;;;8.70;99.90;;;;;;5030147;28;20037;-36
2024/02/22 06:15:34;;;;;;;1.40;1.30;;;8.60;99.90;;;;;;5032112;28;20029;-34
2024/02/22 06:17:59;;;;;;;2.00;1.50;;;8.60;99.90;;;;;;5031757;28;20383;-33
2024/02/22 06:20:25;;;;;;;2.17;1.48;;;8.60;99.90;;;;;;5025358;28;20455;-36
2024/02/22 06:22:52;;;;;;;1.77;1.38;;;8.60;99.90;;;;;;5036427;28;20018;-37
2024/02/22 06:25:17;;;;;;;1.52;1.30;;;8.50;99.90;;;;;;5034579;28;20104;-34
2024/02/22 06:27:43;;;;;;;1.73;1.23;;;8.50;99.90;;;;;;5029920;28;20029;-33
2024/02/22 06:30:10;;;;;;;1.17;1.13;;;8.50;99.90;;;;;;5030139;28;20033;-36
2024/02/22 06:32:36;;;;;;;1.42;1.25;;;8.50;99.90;;;;;;5029101;28;20375;-34
2024/02/22 06:35:02;;;;;;;2.00;1.38;;;8.50;99.90;;;;;;5030557;28;20132;-33
2024/02/22 06:37:28;;;;;;;1.45;1.30;;;8.50;99.90;;;;;;5024498;28;20554;-34
2024/02/22 06:39:53;;;;;;;1.05;1.05;;;8.50;99.90;;;;;;5030937;28;20045;-33
2024/02/22 06:42:19;;;;;;;2.85;1.27;;;8.50;99.90;;;;;;5007533;28;20049;-34
2024/02/22 06:44:45;;;;;;;2.15;1.23;;;8.50;99.90;;;;;;5025691;28;20017;-33
2024/02/22 06:47:12;;;;;;;2.00;1.30;;;8.50;99.90;;;;;;5018831;28;20033;-33
2024/02/22 06:49:38;;;;;;;2.88;1.50;;;8.40;99.90;;;;;;5027612;28;20644;-36
2024/02/22 06:52:04;;;;;;;1.23;1.13;;;8.50;99.90;;;;;;5024145;28;20033;-36
2024/02/22 06:54:30;;;;;;;1.23;1.20;;;8.40;99.90;;;;;;5021087;28;20037;-36
2024/02/22 06:56:57;;;;;;;1.17;1.10;;;8.40;99.90;;;;;;5023011;28;20037;-32
2024/02/22 06:59:23;;;;;;;1.75;1.50;;;8.40;99.90;;;;;;5020203;28;20034;-31
2024/02/22 07:01:49;;;;;;;1.77;1.15;;;8.40;99.90;;;;;;5021103;28;20095;-35
2024/02/22 07:04:15;;;;;;;3.00;1.92;;;8.40;99.90;;;;;;5004759;28;20022;-32
2024/02/22 07:06:41;;;;;;;1.08;1.00;;;8.30;99.90;;;;;;5027180;28;20017;-33
2024/02/22 07:09:07;;;;;;;3.30;1.50;;;8.30;99.90;;;;;;5002002;28;20032;-32
2024/02/22 07:11:32;;;;;;;2.17;1.45;;;8.30;99.90;;;;;;5025214;28;20033;-32
2024/02/22 07:13:59;;;;;;;3.00;1.77;;;8.30;99.90;;;;;;5021446;28;20025;-32
2024/02/22 07:16:25;;;;;;;1.83;1.55;;;8.30;99.90;;;;;;5010792;28;20542;-30
2024/02/22 07:18:51;;;;;;;3.70;2.13;;;8.30;99.90;;;;;;5009092;28;20454;-33
2024/02/22 07:21:17;;;;;;;2.33;1.85;;;8.30;99.90;;;;;;5026470;28;20038;-31
2024/02/22 07:23:43;;;;;;;2.60;1.48;;;8.30;99.90;;;;;;5029134;28;20033;-33
2024/02/22 07:26:12;;;;;;;2.17;1.98;;;8.30;99.90;;;;;;5042100;28;20047;-34
2024/02/22 07:28:39;;;;;;;1.73;1.63;;;8.30;99.90;;;;;;5029609;28;20104;-37
2024/02/22 07:31:05;;;;;;;4.55;1.77;;;8.30;99.90;;;;;;5044692;28;20041;-31
2024/02/22 07:33:31;;;;;;;2.53;1.70;;;8.30;99.90;;;;;;5036110;28;20029;-33
2024/02/22 07:35:58;;;;;;;2.38;1.70;;;8.30;99.90;;;;;;5053527;28;20059;-31
2024/02/22 07:38:24;;;;;;;2.75;1.65;;;8.30;99.90;;;;;;5003009;28;20060;-30
2024/02/22 07:40:51;;;;;;;3.10;1.50;;;8.30;99.90;;;;;;5036941;28;20021;-31
2024/02/22 07:43:17;;;;;;;3.88;2.20;;;8.30;99.90;;;;;;5044593;28;20032;-31
2024/02/22 07:45:46;;;;;;;2.65;2.05;;;8.30;99.90;;;;;;5041983;28;20028;-32
2024/02/22 07:48:12;;;;;;;3.88;1.90;;;8.30;99.90;;;;;;5045947;28;20200;-35
2024/02/22 07:50:38;;;;;;;1.90;1.73;;;8.30;99.90;;;;;;5049443;28;20079;-30
2024/02/22 07:53:05;;;;;;;2.10;1.90;;;8.30;99.90;;;;;;5044624;28;20040;-33
2024/02/22 07:55:31;;;;;;;2.30;1.92;;;8.30;99.90;;;;;;5049745;28;20108;-31
2024/02/22 07:57:57;;;;;;;3.25;2.15;;;8.30;99.90;;;;;;5043161;28;20133;-33
2024/02/22 08:00:26;;;;;;;2.33;2.13;;;8.30;99.90;;;;;;5038066;28;20033;-32
2024/02/22 08:02:52;;;;;;;3.38;1.95;;;8.30;99.90;;;;;;5042033;28;20029;-37
2024/02/22 08:05:17;;;;;;;3.00;2.10;;;8.30;99.90;;;;;;5043378;28;20074;-33
2024/02/22 08:07:43;;;;;;;2.13;1.83;;;8.30;99.90;;;;;;5035850;28;20025;-34
2024/02/22 08:10:09;;;;;;;3.55;2.38;;;8.30;99.90;;;;;;5041431;28;20556;-33
2024/02/22 08:12:35;;;;;;;2.50;2.10;;;8.30;99.90;;;;;;5044186;28;21264;-32
2024/02/22 08:15:02;;;;;;;2.33;2.05;;;8.30;99.90;;;;;;5039388;28;20036;-31
2024/02/22 08:17:30;;;;;;;5.00;2.33;;;8.30;99.90;;;;;;5029030;28;20051;-32
2024/02/22 08:19:56;;;;;;;2.65;1.90;;;8.30;99.90;;;;;;5045436;28;20109;-31
2024/02/22 08:22:22;;;;;;;2.50;1.90;;;8.40;99.90;;;;;;5014375;28;20132;-32
2024/02/22 08:24:48;;;;;;;3.70;2.10;;;8.40;99.90;;;;;;5036328;28;20056;-32
2024/02/22 08:27:13;;;;;;;3.67;2.05;;;8.40;99.90;;;;;;5022024;28;20107;-31
2024/02/22 08:29:39;;;;;;;3.65;2.25;;;8.40;99.90;;;;;;5027889;28;20517;-31
2024/02/22 08:32:05;;;;;;;3.20;2.10;;;8.30;99.90;;;;;;5026309;28;20037;-31
2024/02/22 08:34:31;;;;;;;2.13;1.58;;;8.30;99.90;;;;;;5026900;28;20025;-31
2024/02/22 08:36:57;;;;;;;3.60;2.42;;;8.30;99.90;;;;;;4993871;28;20025;-34
2024/02/22 08:39:25;;;;;;;3.30;2.40;;;8.30;99.90;;;;;;5023178;28;20037;-33
2024/02/22 08:41:51;;;;;;;4.10;3.08;;;8.30;99.90;;;;;;5028813;28;20068;-38
2024/02/22 08:44:17;;;;;;;4.45;2.28;;;8.40;99.90;;;;;;5039741;28;20033;-31
2024/02/22 08:46:43;;;;;;;2.13;1.83;;;8.40;99.90;;;;;;5027235;28;20018;-32
2024/02/22 08:49:09;;;;;;;3.45;2.25;;;8.40;99.90;;;;;;5022261;28;20040;-34
2024/02/22 08:51:35;;;;;;;3.08;1.90;;;8.50;99.90;;;;;;5021951;28;20038;-33
2024/02/22 08:54:01;;;;;;;1.73;1.40;;;8.50;99.90;;;;;;5010163;28;20029;-33
2024/02/22 08:56:27;;;;;;;2.45;2.25;;;8.50;99.90;;;;;;5030065;28;20044;-33
2024/02/22 08:58:57;;;;;;;3.30;2.45;;;8.50;99.90;;;;;;5008599;28;20022;-36
2024/02/22 09:01:23;;;;;;;2.58;2.17;;;8.50;99.90;;;;;;5025592;28;20048;-32
2024/02/22 09:03:49;;;;;;;5.32;2.60;;;8.50;99.90;;;;;;5028252;28;20064;-32
2024/02/22 09:06:15;;;;;;;3.78;2.70;;;8.50;99.90;;;;;;5024930;28;20118;-33
2024/02/22 09:08:43;;;;;;;4.03;2.78;;;8.50;99.90;;;;;;5023176;28;20147;-31
2024/02/22 09:11:08;;;;;;;3.27;2.33;;;8.50;99.90;;;;;;5021207;28;20033;-32
2024/02/22 09:13:34;;;;;;;3.65;2.35;;;8.50;99.90;;;;;;5028711;28;20457;-30
2024/02/22 09:16:01;;;;;;;3.15;2.40;;;8.50;99.90;;;;;;5014417;28;20115;-31
2024/02/22 09:18:27;;;;;;;2.47;1.75;;;8.60;99.90;;;;;;5009378;28;20030;-32
2024/02/22 09:20:53;;;;;;;5.10;2.97;;;8.60;99.90;;;;;;5021977;28;20443;-38
2024/02/22 09:23:19;;;;;;;3.30;2.75;;;8.60;99.90;;;;;;5025156;28;20494;-40
2024/02/22 09:25:46;;;;;;;8.10;2.95;;;8.60;99.90;;;;;;5024017;28;20137;-36
2024/02/22 09:28:12;;;;;;;2.90;2.40;;;8.60;99.90;;;;;;5027348;28;20044;-37
2024/02/22 09:30:37;;;;;;;4.85;2.85;;;8.60;99.90;;;;;;5024390;28;20487;-37
2024/02/22 09:33:03;;;;;;;4.30;2.88;;;8.60;99.90;;;;;;5030873;28;20079;-36
2024/02/22 09:35:29;;;;;;;4.18;2.63;;;8.60;99.90;;;;;;5023099;28;20511;-41
2024/02/22 09:37:55;;;;;;;3.55;2.50;;;8.60;99.90;;;;;;5027827;28;20025;-40
2024/02/22 09:40:21;;;;;;;4.03;2.40;;;8.70;99.90;;;;;;5030692;28;20105;-42
2024/02/22 09:42:48;;;;;;;4.45;2.63;;;8.60;99.90;;;;;;5030239;28;20048;-38
2024/02/22 09:45:14;;;;;;;4.90;3.05;;;8.70;99.90;;;;;;5026471;28;20041;-39
2024/02/22 09:47:41;;;;;;;5.05;3.03;;;8.70;99.90;;;;;;5010756;28;20387;-42
2024/02/22 09:50:10;;;;;;;15.95;2.92;;;8.80;99.90;;;;;;5025450;28;20026;-41
2024/02/22 09:52:36;;;;;;;;;;;8.80;99.90;;;;;;5025586;28;20027;-42
2024/02/22 09:55:03;;;;;;;5.05;3.10;;;8.80;99.90;;;;;;5028180;28;19913;-39
2024/02/22 09:57:29;;;;;;;2.95;2.13;;;8.90;99.90;;;;;;5022062;28;20053;-40
2024/02/22 09:59:54;;;;;;;3.30;2.22;;;8.90;99.90;;;;;;5028192;28;20104;-41
2024/02/22 10:02:22;;;;;;;4.53;3.03;;;9.00;99.90;;;;;;5023710;28;20360;-42
2024/02/22 10:04:56;;;;;;;5.35;3.45;;;8.90;99.90;;;;;;5027986;28;20087;-37
2024/02/22 10:07:33;;;;;;;5.15;3.45;;;9.00;99.90;;;;;;5024206;28;20148;-41
2024/02/22 10:09:59;;;;;;;4.43;3.28;;;9.00;99.90;;;;;;5020373;28;20080;-40
2024/02/22 10:12:32;;;;;;;5.00;3.45;;;9.10;99.90;;;;;;5027091;28;20052;-41
2024/02/22 10:15:10;;;;;;;4.88;2.88;;;9.10;99.90;;;;;;5030536;28;20498;-42
2024/02/22 10:17:36;;;;;;;;;;;9.10;99.90;;;;;;5027961;28;20768;-38
2024/02/22 10:20:06;;;;;;;8.05;2.60;;;9.10;99.90;;;;;;5026499;28;19943;-41
2024/02/22 10:22:42;;;;;;;2.45;2.05;;;9.10;99.90;;;;;;5029381;28;20029;-31
2024/02/22 10:25:14;;;;;;;5.00;3.25;;;9.10;99.90;;;;;;5022526;28;20218;-33
2024/02/22 10:27:46;;;;;;;5.53;3.38;;;9.10;99.90;;;;;;5028567;28;20026;-32
2024/02/22 10:30:13;;;;;;;5.00;3.47;;;9.10;99.90;;;;;;5020157;28;20033;-31
2024/02/22 10:32:41;;;;;;;5.05;3.30;;;9.10;99.90;;;;;;5031823;28;20034;-40
2024/02/22 10:35:11;;;;;;;2.70;1.92;;;9.10;99.90;;;;;;5027382;28;20053;-38
2024/02/22 10:37:37;;;;;;;5.97;3.30;;;9.10;99.90;;;;;;5026111;28;20163;-40
2024/02/22 10:40:04;;;;;;;4.20;3.10;;;9.20;99.90;;;;;;5021680;28;20491;-40
2024/02/22 10:42:30;;;;;;;4.75;3.25;;;9.20;99.90;;;;;;5023925;28;20025;-38
2024/02/22 10:44:57;;;;;;;2.97;2.25;;;9.30;99.90;;;;;;5025739;28;20215;-36
2024/02/22 10:47:25;;;;;;;4.40;2.78;;;9.20;99.90;;;;;;5029190;28;20093;-38
2024/02/22 10:49:55;;;;;;;5.25;3.22;;;9.20;99.90;;;;;;5030778;28;20034;-37
2024/02/22 10:52:23;;;;;;;6.80;3.47;;;9.30;99.90;;;;;;5025204;28;20555;-41
2024/02/22 10:54:56;;;;;;;5.93;3.22;;;9.40;99.90;;;;;;5026326;28;20093;-41
2024/02/22 10:57:23;;;;;;;2.90;2.10;;;9.50;99.90;;;;;;5025292;28;20383;-41
2024/02/22 10:59:54;;;;;;;4.93;2.88;;;9.50;99.90;;;;;;5025558;28;20053;-39
2024/02/22 11:02:25;;;;;;;4.50;3.20;;;9.60;99.90;;;;;;5025151;28;20029;-40
2024/02/22 11:05:07;;;;;;;5.65;4.20;;;9.80;99.90;;;;;;5024154;28;20030;-33
2024/02/22 11:07:41;;;;;;;3.40;2.60;;;9.80;99.90;;;;;;5023200;28;20562;-41
2024/02/22 11:10:10;;;;;;;6.57;3.47;;;9.90;99.90;;;;;;5020437;28;20550;-39
2024/02/22 11:12:36;;;;;;;4.85;3.17;;;9.90;99.90;;;;;;5024059;28;20075;-41
2024/02/22 11:15:10;;;;;;;4.95;3.42;;;10.00;99.90;;;;;;5022042;28;20065;-37
2024/02/22 11:17:36;;;;;;;5.53;3.40;;;10.10;99.90;;;;;;5023384;28;20762;-41
2024/02/22 11:20:09;;;;;;;4.40;3.35;;;10.20;99.90;;;;;;5022372;28;20033;-41
2024/02/22 11:22:36;;;;;;;3.20;2.47;;;10.30;99.90;;;;;;5020553;28;20025;-38
2024/02/22 11:25:05;;;;;;;4.82;2.85;;;10.40;99.90;;;;;;5025228;28;20057;-39
2024/02/22 11:27:30;;;;;;;5.80;2.85;;;10.40;99.90;;;;;;5032625;28;20486;-41
2024/02/22 11:29:58;;;;;;;3.17;2.67;;;10.50;99.90;;;;;;5028246;28;20025;-37
2024/02/22 11:32:24;;;;;;;3.72;2.70;;;10.50;99.90;;;;;;5031834;28;20041;-43
2024/02/22 11:34:52;;;;;;;6.45;2.95;;;10.60;99.90;;;;;;5020419;28;20017;-40
2024/02/22 11:37:19;;;;;;;4.90;2.97;;;10.60;99.90;;;;;;5028594;28;20057;-40
2024/02/22 11:39:46;;;;;;;4.78;3.28;;;10.70;99.90;;;;;;5037605;28;20041;-36
2024/02/22 11:42:15;;;;;;;5.15;2.97;;;10.70;99.90;;;;;;5011944;28;20391;-41
2024/02/22 11:44:44;;;;;;;4.78;3.17;;;10.80;99.90;;;;;;5030356;28;20120;-41
2024/02/22 11:47:13;;;;;;;4.20;2.72;;;11.00;99.90;;;;;;5032481;28;20083;-41
2024/02/22 11:49:40;;;;;;;4.55;2.70;;;11.10;99.90;;;;;;5040655;28;20048;-42
2024/02/22 11:52:07;;;;;;;2.95;2.65;;;11.10;99.90;;;;;;5030283;28;20465;-41
2024/02/22 11:54:32;;;;;;;4.55;2.83;;;11.10;99.90;;;;;;5035400;28;20120;-42
2024/02/22 11:57:02;;;;;;;2.78;2.35;;;11.10;99.90;;;;;;5034105;28;20109;-41
2024/02/22 11:59:28;;;;;;;3.67;2.58;;;11.20;99.90;;;;;;5039764;28;20079;-40
2024/02/22 12:01:54;;;;;;;3.75;2.70;;;11.20;99.90;;;;;;5032167;28;20691;-39
2024/02/22 12:04:20;;;;;;;3.88;2.80;;;11.20;99.90;;;;;;5037643;28;20056;-41
2024/02/22 12:06:46;;;;;;;3.65;1.83;;;11.30;99.90;;;;;;5037020;28;20385;-33
2024/02/22 12:09:13;;;;;;;2.83;2.47;;;11.20;99.90;;;;;;5018257;28;20042;-41
2024/02/22 12:11:40;;;;;;;6.28;2.60;;;11.10;99.90;;;;;;5035529;28;20506;-41
2024/02/22 12:14:05;;;;;;;2.67;2.47;;;11.10;99.90;;;;;;5014784;28;20064;-39
2024/02/22 12:16:38;;;;;;;2.40;2.05;;;11.10;99.90;;;;;;5035701;28;20514;-39
2024/02/22 12:19:04;;;;;;;2.45;2.25;;;11.00;99.90;;;;;;5028036;28;20029;-38
2024/02/22 12:21:30;;;;;;;2.42;2.03;;;11.10;99.90;;;;;;5035481;28;20033;-41
2024/02/22 12:23:59;;;;;;;4.07;2.85;;;11.00;99.90;;;;;;5011985;28;20044;-40
2024/02/22 12:26:25;;;;;;;3.90;2.20;;;11.00;99.90;;;;;;5025287;28;20025;-42
2024/02/22 12:28:53;;;;;;;3.20;2.80;;;11.00;99.90;;;;;;5024391;28;20030;-37
2024/02/22 12:31:22;;;;;;;3.47;2.60;;;11.00;99.90;;;;;;5029615;28;20064;-41
2024/02/22 12:33:50;;;;;;;3.53;2.83;;;10.90;99.90;;;;;;5025150;28;20069;-39
2024/02/22 12:36:20;;;;;;;3.87;2.60;;;10.90;99.90;;;;;;5007571;28;20041;-39
2024/02/22 12:38:46;;;;;;;3.28;2.45;;;10.80;99.90;;;;;;5001234;28;20630;-34
2024/02/22 12:41:15;;;;;;;4.25;2.50;;;10.80;99.90;;;;;;5005606;28;20048;-40
2024/02/22 12:43:49;;;;;;;3.30;2.50;;;10.80;99.90;;;;;;5001557;28;20022;-41
2024/02/22 12:46:16;;;;;;;5.90;2.35;;;10.80;99.90;;;;;;5006726;28;20510;-40
2024/02/22 12:48:43;;;;;;;4.53;2.55;;;10.80;99.90;;;;;;5025621;28;20390;-40
2024/02/22 12:51:10;;;;;;;3.00;2.67;;;10.80;99.90;;;;;;5024667;28;20048;-33